sensor_id;sensor_type;location;lat;lon;timestamp;temperature;humidity
1021;DHT22;499;42.648;23.270;2023-02-28T00:00:10;6.60;99.90
1021;DHT22;499;42.648;23.270;2023-02-28T00:02:39;6.60;99.90
1021;DHT22;499;42.648;23.270;2023-02-28T00:05:09;6.60;99.90
1021;DHT22;499;42.648;23.270;2023-02-28T00:07:36;6.60;99.90
1021;DHT22;499;42.648;23.270;2023-02-28T00:10:05;6.60;99.90
1021;DHT22;499;42.648;23.270;2023-02-28T00:12:33;6.60;99.90
1021;DHT22;499;42.648;23.270;2023-02-28T00:15:03;6.60;99.90
1021;DHT22;499;42.648;23.270;2023-02-28T00:17:32;6.70;99.90
1021;DHT22;499;42.648;23.270;2023-02-28T00:19:59;6.90;99.90
1021;DHT22;499;42.648;23.270;2023-02-28T00:22:38;6.90;99.90
1021;DHT22;499;42.648;23.270;2023-02-28T00:25:06;6.80;99.90
1021;DHT22;499;42.648;23.270;2023-02-28T00:27:34;6.80;99.90
1021;DHT22;499;42.648;23.270;2023-02-28T00:30:03;6.90;99.90
1021;DHT22;499;42.648;23.270;2023-02-28T00:32:30;7.00;99.90
1021;DHT22;499;42.648;23.270;2023-02-28T00:34:57;7.10;99.90
1021;DHT22;499;42.648;23.270;2023-02-28T00:37:25;7.00;99.90
1021;DHT22;499;42.648;23.270;2023-02-28T00:39:52;7.00;99.90
1021;DHT22;499;42.648;23.270;2023-02-28T00:42:19;7.00;99.90
1021;DHT22;499;42.648;23.270;2023-02-28T00:44:46;7.10;99.90
1021;DHT22;499;42.648;23.270;2023-02-28T00:47:15;6.90;99.90
1021;DHT22;499;42.648;23.270;2023-02-28T00:49:42;6.90;99.90
1021;DHT22;499;42.648;23.270;2023-02-28T00:52:10;7.00;99.90
1021;DHT22;499;42.648;23.270;2023-02-28T00:54:37;7.10;99.90
1021;DHT22;499;42.648;23.270;2023-02-28T00:57:04;7.00;99.90
1021;DHT22;499;42.648;23.270;2023-02-28T00:59:31;6.90;99.90
1021;DHT22;499;42.648;23.270;2023-02-28T01:01:58;6.80;99.90
1021;DHT22;499;42.648;23.270;2023-02-28T01:04:27;6.90;99.90
1021;DHT22;499;42.648;23.270;2023-02-28T01:06:54;6.90;99.90
1021;DHT22;499;42.648;23.270;2023-02-28T01:09:21;6.90;99.90
1021;DHT22;499;42.648;23.270;2023-02-28T01:11:48;6.80;99.90
1021;DHT22;499;42.648;23.270;2023-02-28T01:14:16;6.90;99.90
1021;DHT22;499;42.648;23.270;2023-02-28T01:16:43;6.90;99.90
1021;DHT22;499;42.648;23.270;2023-02-28T01:19:10;7.00;99.90
1021;DHT22;499;42.648;23.270;2023-02-28T01:21:39;6.90;99.90
1021;DHT22;499;42.648;23.270;2023-02-28T01:24:06;7.00;99.90
1021;DHT22;499;42.648;23.270;2023-02-28T01:26:33;7.00;99.90
1021;DHT22;499;42.648;23.270;2023-02-28T01:29:00;7.00;99.90
1021;DHT22;499;42.648;23.270;2023-02-28T01:31:27;7.00;99.90
1021;DHT22;499;42.648;23.270;2023-02-28T01:33:54;7.00;99.90
1021;DHT22;499;42.648;23.270;2023-02-28T01:36:22;7.00;99.90
1021;DHT22;499;42.648;23.270;2023-02-28T01:38:51;7.00;99.90
1021;DHT22;499;42.648;23.270;2023-02-28T01:41:20;6.90;99.90
1021;DHT22;499;42.648;23.270;2023-02-28T01:44:03;6.80;99.90
1021;DHT22;499;42.648;23.270;2023-02-28T01:46:32;6.50;99.90
1021;DHT22;499;42.648;23.270;2023-02-28T01:49:04;6.40;99.90
1021;DHT22;499;42.648;23.270;2023-02-28T01:51:35;6.30;99.90
1021;DHT22;499;42.648;23.270;2023-02-28T01:54:08;6.30;99.90
1021;DHT22;499;42.648;23.270;2023-02-28T01:56:42;6.20;99.90
1021;DHT22;499;42.648;23.270;2023-02-28T01:59:13;6.20;99.90
1021;DHT22;499;42.648;23.270;2023-02-28T02:01:41;6.30;99.90
1021;DHT22;499;42.648;23.270;2023-02-28T02:04:08;6.20;99.90
1021;DHT22;499;42.648;23.270;2023-02-28T02:06:38;6.20;99.90
1021;DHT22;499;42.648;23.270;2023-02-28T02:09:07;6.20;99.90
1021;DHT22;499;42.648;23.270;2023-02-28T02:11:35;6.20;99.90
1021;DHT22;499;42.648;23.270;2023-02-28T02:14:30;6.20;99.90
1021;DHT22;499;42.648;23.270;2023-02-28T02:17:11;6.10;99.90
1021;DHT22;499;42.648;23.270;2023-02-28T02:20:03;6.30;99.90
1021;DHT22;499;42.648;23.270;2023-02-28T02:25:40;6.20;99.90
1021;DHT22;499;42.648;23.270;2023-02-28T02:28:36;6.40;99.90
1021;DHT22;499;42.648;23.270;2023-02-28T02:31:33;6.40;99.90
1021;DHT22;499;42.648;23.270;2023-02-28T02:34:33;6.30;99.90
1021;DHT22;499;42.648;23.270;2023-02-28T02:37:14;6.20;99.90
1021;DHT22;499;42.648;23.270;2023-02-28T02:39:48;6.20;99.90
1021;DHT22;499;42.648;23.270;2023-02-28T02:42:23;6.20;99.90
1021;DHT22;499;42.648;23.270;2023-02-28T02:44:57;6.20;99.90
1021;DHT22;499;42.648;23.270;2023-02-28T02:47:29;6.20;99.90
1021;DHT22;499;42.648;23.270;2023-02-28T02:50:02;6.10;99.90
1021;DHT22;499;42.648;23.270;2023-02-28T02:52:36;6.00;99.90
1021;DHT22;499;42.648;23.270;2023-02-28T02:55:07;6.00;99.90
1021;DHT22;499;42.648;23.270;2023-02-28T02:57:40;5.90;99.90
1021;DHT22;499;42.648;23.270;2023-02-28T03:00:12;6.00;99.90
1021;DHT22;499;42.648;23.270;2023-02-28T03:02:41;5.90;99.90
1021;DHT22;499;42.648;23.270;2023-02-28T03:05:16;6.00;99.90
1021;DHT22;499;42.648;23.270;2023-02-28T03:07:45;6.00;99.90
1021;DHT22;499;42.648;23.270;2023-02-28T03:10:32;6.10;99.90
1021;DHT22;499;42.648;23.270;2023-02-28T03:13:30;5.70;99.90
1021;DHT22;499;42.648;23.270;2023-02-28T03:16:16;5.90;99.90
1021;DHT22;499;42.648;23.270;2023-02-28T03:18:53;5.80;99.90
1021;DHT22;499;42.648;23.270;2023-02-28T03:21:28;5.80;99.90
1021;DHT22;499;42.648;23.270;2023-02-28T03:24:04;5.70;99.90
1021;DHT22;499;42.648;23.270;2023-02-28T03:26:36;5.80;99.90
1021;DHT22;499;42.648;23.270;2023-02-28T03:29:08;5.80;99.90
1021;DHT22;499;42.648;23.270;2023-02-28T03:31:41;5.80;99.90
1021;DHT22;499;42.648;23.270;2023-02-28T03:34:13;5.80;99.90
1021;DHT22;499;42.648;23.270;2023-02-28T03:36:46;5.80;99.90
1021;DHT22;499;42.648;23.270;2023-02-28T03:39:16;5.70;99.90
1021;DHT22;499;42.648;23.270;2023-02-28T03:41:46;5.70;99.90
1021;DHT22;499;42.648;23.270;2023-02-28T03:44:18;5.60;99.90
1021;DHT22;499;42.648;23.270;2023-02-28T03:47:00;5.70;99.90
1021;DHT22;499;42.648;23.270;2023-02-28T03:49:31;5.70;99.90
1021;DHT22;499;42.648;23.270;2023-02-28T03:52:02;5.70;99.90
1021;DHT22;499;42.648;23.270;2023-02-28T03:54:33;5.60;99.90
1021;DHT22;499;42.648;23.270;2023-02-28T03:57:05;5.70;99.90
1021;DHT22;499;42.648;23.270;2023-02-28T03:59:37;5.60;99.90
1021;DHT22;499;42.648;23.270;2023-02-28T04:02:06;5.70;99.90
1021;DHT22;499;42.648;23.270;2023-02-28T04:04:34;5.70;99.90
1021;DHT22;499;42.648;23.270;2023-02-28T04:07:04;5.80;99.90
1021;DHT22;499;42.648;23.270;2023-02-28T04:09:31;5.80;99.90
1021;DHT22;499;42.648;23.270;2023-02-28T04:11:59;5.80;99.90
1021;DHT22;499;42.648;23.270;2023-02-28T04:14:26;5.80;99.90
1021;DHT22;499;42.648;23.270;2023-02-28T04:16:53;5.80;99.90
1021;DHT22;499;42.648;23.270;2023-02-28T04:19:20;5.80;99.90
1021;DHT22;499;42.648;23.270;2023-02-28T04:21:48;5.90;99.90
1021;DHT22;499;42.648;23.270;2023-02-28T04:24:19;5.90;99.90
1021;DHT22;499;42.648;23.270;2023-02-28T04:26:48;6.00;99.90
1021;DHT22;499;42.648;23.270;2023-02-28T04:29:19;5.80;99.90
1021;DHT22;499;42.648;23.270;2023-02-28T04:31:47;5.90;99.90
1021;DHT22;499;42.648;23.270;2023-02-28T04:34:14;6.00;99.90
1021;DHT22;499;42.648;23.270;2023-02-28T04:36:41;6.10;99.90
1021;DHT22;499;42.648;23.270;2023-02-28T04:39:08;6.30;99.90
1021;DHT22;499;42.648;23.270;2023-02-28T04:41:37;6.30;99.90
1021;DHT22;499;42.648;23.270;2023-02-28T04:44:04;6.30;99.90
1021;DHT22;499;42.648;23.270;2023-02-28T04:46:32;6.40;99.90
1021;DHT22;499;42.648;23.270;2023-02-28T04:48:59;6.40;99.90
1021;DHT22;499;42.648;23.270;2023-02-28T04:51:26;6.40;99.90
1021;DHT22;499;42.648;23.270;2023-02-28T04:53:53;6.30;99.90
1021;DHT22;499;42.648;23.270;2023-02-28T04:56:21;6.20;99.90
1021;DHT22;499;42.648;23.270;2023-02-28T04:58:49;6.10;99.90
1021;DHT22;499;42.648;23.270;2023-02-28T05:01:21;6.00;99.90
1021;DHT22;499;42.648;23.270;2023-02-28T05:03:49;6.00;99.90
1021;DHT22;499;42.648;23.270;2023-02-28T05:06:17;5.90;99.90
1021;DHT22;499;42.648;23.270;2023-02-28T05:08:46;5.80;99.90
1021;DHT22;499;42.648;23.270;2023-02-28T05:11:16;5.80;99.90
1021;DHT22;499;42.648;23.270;2023-02-28T05:13:44;5.80;99.90
1021;DHT22;499;42.648;23.270;2023-02-28T05:16:12;5.90;99.90
1021;DHT22;499;42.648;23.270;2023-02-28T05:18:40;5.90;99.90
1021;DHT22;499;42.648;23.270;2023-02-28T05:21:23;5.80;99.90
1021;DHT22;499;42.648;23.270;2023-02-28T05:23:50;6.00;99.90
1021;DHT22;499;42.648;23.270;2023-02-28T05:26:18;6.00;99.90
1021;DHT22;499;42.648;23.270;2023-02-28T05:28:45;5.90;99.90
1021;DHT22;499;42.648;23.270;2023-02-28T05:31:14;5.90;99.90
1021;DHT22;499;42.648;23.270;2023-02-28T05:33:41;5.90;99.90
1021;DHT22;499;42.648;23.270;2023-02-28T05:36:08;6.00;99.90
1021;DHT22;499;42.648;23.270;2023-02-28T05:38:35;5.80;99.90
1021;DHT22;499;42.648;23.270;2023-02-28T05:41:05;5.90;99.90
1021;DHT22;499;42.648;23.270;2023-02-28T05:43:33;6.10;99.90
1021;DHT22;499;42.648;23.270;2023-02-28T05:46:03;6.20;99.90
1021;DHT22;499;42.648;23.270;2023-02-28T05:48:33;6.40;99.90
1021;DHT22;499;42.648;23.270;2023-02-28T05:51:00;6.40;99.90
1021;DHT22;499;42.648;23.270;2023-02-28T05:53:28;6.30;99.90
1021;DHT22;499;42.648;23.270;2023-02-28T05:55:58;6.50;99.90
1021;DHT22;499;42.648;23.270;2023-02-28T05:58:26;6.50;99.90
1021;DHT22;499;42.648;23.270;2023-02-28T06:00:56;6.40;99.90
1021;DHT22;499;42.648;23.270;2023-02-28T06:03:23;6.30;99.90
1021;DHT22;499;42.648;23.270;2023-02-28T06:05:52;6.20;99.90
1021;DHT22;499;42.648;23.270;2023-02-28T06:08:19;6.20;99.90
1021;DHT22;499;42.648;23.270;2023-02-28T06:10:46;6.20;99.90
1021;DHT22;499;42.648;23.270;2023-02-28T06:13:13;6.10;99.90
1021;DHT22;499;42.648;23.270;2023-02-28T06:15:40;6.20;99.90
1021;DHT22;499;42.648;23.270;2023-02-28T06:18:07;6.10;99.90
1021;DHT22;499;42.648;23.270;2023-02-28T06:20:34;6.10;99.90
1021;DHT22;499;42.648;23.270;2023-02-28T06:23:03;6.10;99.90
1021;DHT22;499;42.648;23.270;2023-02-28T06:25:30;6.20;99.90
1021;DHT22;499;42.648;23.270;2023-02-28T06:27:57;6.20;99.90
1021;DHT22;499;42.648;23.270;2023-02-28T06:30:24;6.10;99.90
1021;DHT22;499;42.648;23.270;2023-02-28T06:32:52;6.10;99.90
1021;DHT22;499;42.648;23.270;2023-02-28T06:35:20;6.20;99.90
1021;DHT22;499;42.648;23.270;2023-02-28T06:37:47;6.20;99.90
1021;DHT22;499;42.648;23.270;2023-02-28T06:40:15;6.20;99.90
1021;DHT22;499;42.648;23.270;2023-02-28T06:42:43;6.30;99.90
1021;DHT22;499;42.648;23.270;2023-02-28T06:45:10;5.80;99.90
1021;DHT22;499;42.648;23.270;2023-02-28T06:47:38;6.30;99.90
1021;DHT22;499;42.648;23.270;2023-02-28T06:50:06;6.30;99.90
1021;DHT22;499;42.648;23.270;2023-02-28T06:52:33;6.30;99.90
1021;DHT22;499;42.648;23.270;2023-02-28T06:55:03;6.20;99.90
1021;DHT22;499;42.648;23.270;2023-02-28T06:57:33;6.20;99.90
1021;DHT22;499;42.648;23.270;2023-02-28T07:00:02;6.20;99.90
1021;DHT22;499;42.648;23.270;2023-02-28T07:02:30;6.20;99.90
1021;DHT22;499;42.648;23.270;2023-02-28T07:04:57;6.20;99.90
1021;DHT22;499;42.648;23.270;2023-02-28T07:07:24;6.20;99.90
1021;DHT22;499;42.648;23.270;2023-02-28T07:09:51;6.20;99.90
1021;DHT22;499;42.648;23.270;2023-02-28T07:12:18;6.10;99.90
1021;DHT22;499;42.648;23.270;2023-02-28T07:14:47;6.10;99.90
1021;DHT22;499;42.648;23.270;2023-02-28T07:17:14;6.00;99.90
1021;DHT22;499;42.648;23.270;2023-02-28T07:19:41;6.00;99.90
1021;DHT22;499;42.648;23.270;2023-02-28T07:22:08;6.00;99.90
1021;DHT22;499;42.648;23.270;2023-02-28T07:24:35;6.00;99.90
1021;DHT22;499;42.648;23.270;2023-02-28T07:27:02;6.00;99.90
1021;DHT22;499;42.648;23.270;2023-02-28T07:29:29;6.10;99.90
1021;DHT22;499;42.648;23.270;2023-02-28T07:31:58;6.20;99.90
1021;DHT22;499;42.648;23.270;2023-02-28T07:34:25;6.40;99.90
1021;DHT22;499;42.648;23.270;2023-02-28T07:36:53;6.40;99.90
1021;DHT22;499;42.648;23.270;2023-02-28T07:39:21;6.40;99.90
1021;DHT22;499;42.648;23.270;2023-02-28T07:41:48;6.40;99.90
1021;DHT22;499;42.648;23.270;2023-02-28T07:44:16;6.30;99.90
1021;DHT22;499;42.648;23.270;2023-02-28T07:46:43;6.50;99.90
1021;DHT22;499;42.648;23.270;2023-02-28T07:49:11;6.60;99.90
1021;DHT22;499;42.648;23.270;2023-02-28T07:51:39;6.60;99.90
1021;DHT22;499;42.648;23.270;2023-02-28T07:54:06;6.70;99.90
1021;DHT22;499;42.648;23.270;2023-02-28T07:56:33;6.70;99.90
1021;DHT22;499;42.648;23.270;2023-02-28T07:59:00;6.80;99.90
1021;DHT22;499;42.648;23.270;2023-02-28T08:01:28;6.80;99.90
1021;DHT22;499;42.648;23.270;2023-02-28T08:03:55;7.00;99.90
1021;DHT22;499;42.648;23.270;2023-02-28T08:06:25;7.10;99.90
1021;DHT22;499;42.648;23.270;2023-02-28T08:08:53;7.00;99.90
1021;DHT22;499;42.648;23.270;2023-02-28T08:11:21;7.10;99.90
1021;DHT22;499;42.648;23.270;2023-02-28T08:13:48;7.00;99.90
1021;DHT22;499;42.648;23.270;2023-02-28T08:16:16;7.10;99.90
1021;DHT22;499;42.648;23.270;2023-02-28T08:18:48;7.10;99.90
1021;DHT22;499;42.648;23.270;2023-02-28T08:21:15;7.10;99.90
1021;DHT22;499;42.648;23.270;2023-02-28T08:23:43;7.00;99.90
1021;DHT22;499;42.648;23.270;2023-02-28T08:26:12;7.00;99.90
1021;DHT22;499;42.648;23.270;2023-02-28T08:28:39;7.10;99.90
1021;DHT22;499;42.648;23.270;2023-02-28T08:31:09;7.10;99.90
1021;DHT22;499;42.648;23.270;2023-02-28T08:33:37;7.10;99.90
1021;DHT22;499;42.648;23.270;2023-02-28T08:36:06;7.10;99.90
1021;DHT22;499;42.648;23.270;2023-02-28T08:38:34;7.10;99.90
1021;DHT22;499;42.648;23.270;2023-02-28T08:41:05;7.10;99.90
1021;DHT22;499;42.648;23.270;2023-02-28T08:43:32;7.10;99.90
1021;DHT22;499;42.648;23.270;2023-02-28T08:46:00;7.20;99.90
1021;DHT22;499;42.648;23.270;2023-02-28T08:48:28;7.20;99.90
1021;DHT22;499;42.648;23.270;2023-02-28T08:50:56;7.10;99.90
1021;DHT22;499;42.648;23.270;2023-02-28T08:53:23;7.20;99.90
1021;DHT22;499;42.648;23.270;2023-02-28T08:55:57;7.10;99.90
1021;DHT22;499;42.648;23.270;2023-02-28T08:58:27;7.00;99.90
1021;DHT22;499;42.648;23.270;2023-02-28T09:00:54;7.20;99.90
1021;DHT22;499;42.648;23.270;2023-02-28T09:03:21;7.10;99.90
1021;DHT22;499;42.648;23.270;2023-02-28T09:05:53;7.20;99.90
1021;DHT22;499;42.648;23.270;2023-02-28T09:08:21;7.30;99.90
1021;DHT22;499;42.648;23.270;2023-02-28T09:10:48;7.40;99.90
1021;DHT22;499;42.648;23.270;2023-02-28T09:13:15;7.50;99.90
1021;DHT22;499;42.648;23.270;2023-02-28T09:15:43;7.50;99.90
1021;DHT22;499;42.648;23.270;2023-02-28T09:18:11;7.80;99.90
1021;DHT22;499;42.648;23.270;2023-02-28T09:20:38;7.90;99.90
1021;DHT22;499;42.648;23.270;2023-02-28T09:23:06;8.10;99.90
1021;DHT22;499;42.648;23.270;2023-02-28T09:25:35;8.30;99.90
1021;DHT22;499;42.648;23.270;2023-02-28T09:28:03;8.40;98.40
1021;DHT22;499;42.648;23.270;2023-02-28T09:30:30;8.60;98.50
1021;DHT22;499;42.648;23.270;2023-02-28T09:32:59;8.80;98.20
1021;DHT22;499;42.648;23.270;2023-02-28T09:35:26;9.00;95.20
1021;DHT22;499;42.648;23.270;2023-02-28T09:37:53;9.20;87.60
1021;DHT22;499;42.648;23.270;2023-02-28T09:40:22;9.20;77.60
1021;DHT22;499;42.648;23.270;2023-02-28T09:42:52;9.00;82.60
1021;DHT22;499;42.648;23.270;2023-02-28T09:45:24;8.90;87.00
1021;DHT22;499;42.648;23.270;2023-02-28T09:47:56;8.70;90.60
1021;DHT22;499;42.648;23.270;2023-02-28T09:50:32;8.60;93.50
1021;DHT22;499;42.648;23.270;2023-02-28T09:53:03;8.80;94.80
1021;DHT22;499;42.648;23.270;2023-02-28T09:55:35;9.00;95.50
1021;DHT22;499;42.648;23.270;2023-02-28T09:58:10;9.10;93.30
1021;DHT22;499;42.648;23.270;2023-02-28T10:00:42;9.30;91.40
1021;DHT22;499;42.648;23.270;2023-02-28T10:03:22;9.10;90.40
1021;DHT22;499;42.648;23.270;2023-02-28T10:05:54;9.00;91.80
1021;DHT22;499;42.648;23.270;2023-02-28T10:08:26;8.90;93.40
1021;DHT22;499;42.648;23.270;2023-02-28T10:10:57;8.90;94.30
1021;DHT22;499;42.648;23.270;2023-02-28T10:13:27;8.80;94.70
1021;DHT22;499;42.648;23.270;2023-02-28T10:16:01;8.60;95.70
1021;DHT22;499;42.648;23.270;2023-02-28T10:18:36;8.60;98.90
1021;DHT22;499;42.648;23.270;2023-02-28T10:21:16;8.60;99.00
1021;DHT22;499;42.648;23.270;2023-02-28T10:23:45;8.60;99.40
1021;DHT22;499;42.648;23.270;2023-02-28T10:26:15;8.80;99.90
1021;DHT22;499;42.648;23.270;2023-02-28T10:28:42;8.70;98.00
1021;DHT22;499;42.648;23.270;2023-02-28T10:31:13;8.90;97.30
1021;DHT22;499;42.648;23.270;2023-02-28T10:33:42;9.00;97.40
1021;DHT22;499;42.648;23.270;2023-02-28T10:36:13;9.20;97.60
1021;DHT22;499;42.648;23.270;2023-02-28T10:38:42;9.40;94.90
1021;DHT22;499;42.648;23.270;2023-02-28T10:41:11;9.50;91.80
1021;DHT22;499;42.648;23.270;2023-02-28T10:43:40;9.60;90.30
1021;DHT22;499;42.648;23.270;2023-02-28T10:46:13;9.90;91.10
1021;DHT22;499;42.648;23.270;2023-02-28T10:49:02;10.00;88.00
1021;DHT22;499;42.648;23.270;2023-02-28T10:51:40;10.30;82.70
1021;DHT22;499;42.648;23.270;2023-02-28T10:54:16;10.30;72.90
1021;DHT22;499;42.648;23.270;2023-02-28T10:56:43;10.50;72.10
1021;DHT22;499;42.648;23.270;2023-02-28T10:59:27;10.60;70.00
1021;DHT22;499;42.648;23.270;2023-02-28T11:01:56;10.50;63.90
1021;DHT22;499;42.648;23.270;2023-02-28T11:04:35;10.50;65.20
1021;DHT22;499;42.648;23.270;2023-02-28T11:07:15;10.60;64.40
1021;DHT22;499;42.648;23.270;2023-02-28T11:09:46;10.60;61.50
1021;DHT22;499;42.648;23.270;2023-02-28T11:12:21;10.60;62.40
1021;DHT22;499;42.648;23.270;2023-02-28T11:14:51;10.70;59.20
1021;DHT22;499;42.648;23.270;2023-02-28T11:17:21;10.70;60.10
1021;DHT22;499;42.648;23.270;2023-02-28T11:19:51;10.60;59.70
1021;DHT22;499;42.648;23.270;2023-02-28T11:22:24;10.60;61.00
1021;DHT22;499;42.648;23.270;2023-02-28T11:24:56;10.60;62.20
1021;DHT22;499;42.648;23.270;2023-02-28T11:27:26;10.70;60.90
1021;DHT22;499;42.648;23.270;2023-02-28T11:29:53;10.70;59.90
1021;DHT22;499;42.648;23.270;2023-02-28T11:32:22;10.70;59.00
1021;DHT22;499;42.648;23.270;2023-02-28T11:35:00;10.90;59.40
1021;DHT22;499;42.648;23.270;2023-02-28T11:37:31;10.90;54.20
1021;DHT22;499;42.648;23.270;2023-02-28T11:39:58;11.00;52.80
1021;DHT22;499;42.648;23.270;2023-02-28T11:42:57;11.10;52.30
1021;DHT22;499;42.648;23.270;2023-02-28T11:45:45;10.90;50.50
1021;DHT22;499;42.648;23.270;2023-02-28T11:48:21;11.10;53.30
1021;DHT22;499;42.648;23.270;2023-02-28T11:51:00;11.10;50.70
1021;DHT22;499;42.648;23.270;2023-02-28T11:53:59;11.00;48.50
1021;DHT22;499;42.648;23.270;2023-02-28T11:56:32;11.10;50.70
1021;DHT22;499;42.648;23.270;2023-02-28T11:59:14;11.00;49.10
1021;DHT22;499;42.648;23.270;2023-02-28T12:02:06;11.10;49.70
1021;DHT22;499;42.648;23.270;2023-02-28T12:04:45;11.20;50.70
1021;DHT22;499;42.648;23.270;2023-02-28T12:07:18;11.30;48.70
1021;DHT22;499;42.648;23.270;2023-02-28T12:09:58;11.30;46.30
1021;DHT22;499;42.648;23.270;2023-02-28T12:12:42;11.40;47.50
1021;DHT22;499;42.648;23.270;2023-02-28T12:15:34;11.60;46.50
1021;DHT22;499;42.648;23.270;2023-02-28T12:18:21;11.60;43.60
1021;DHT22;499;42.648;23.270;2023-02-28T12:20:56;11.50;43.50
1021;DHT22;499;42.648;23.270;2023-02-28T12:23:46;11.40;43.20
1021;DHT22;499;42.648;23.270;2023-02-28T12:26:20;11.40;43.20
1021;DHT22;499;42.648;23.270;2023-02-28T12:28:54;11.30;42.70
1021;DHT22;499;42.648;23.270;2023-02-28T12:31:27;11.20;43.90
1021;DHT22;499;42.648;23.270;2023-02-28T12:33:59;11.10;44.60
1021;DHT22;499;42.648;23.270;2023-02-28T12:36:28;11.20;45.50
1021;DHT22;499;42.648;23.270;2023-02-28T12:38:58;11.30;44.60
1021;DHT22;499;42.648;23.270;2023-02-28T12:41:34;11.00;41.70
1021;DHT22;499;42.648;23.270;2023-02-28T12:44:07;11.00;44.50
1021;DHT22;499;42.648;23.270;2023-02-28T12:46:38;10.80;43.30
1021;DHT22;499;42.648;23.270;2023-02-28T12:49:10;10.60;45.70
1021;DHT22;499;42.648;23.270;2023-02-28T12:51:39;10.60;45.70
1021;DHT22;499;42.648;23.270;2023-02-28T12:54:14;10.70;46.50
1021;DHT22;499;42.648;23.270;2023-02-28T12:56:48;10.60;47.00
1021;DHT22;499;42.648;23.270;2023-02-28T12:59:25;10.80;47.20
1021;DHT22;499;42.648;23.270;2023-02-28T13:02:17;10.90;47.00
1021;DHT22;499;42.648;23.270;2023-02-28T13:05:10;10.70;44.50
1021;DHT22;499;42.648;23.270;2023-02-28T13:08:28;10.80;45.80
1021;DHT22;499;42.648;23.270;2023-02-28T13:10:58;10.70;47.80
1021;DHT22;499;42.648;23.270;2023-02-28T13:13:29;10.90;46.60
1021;DHT22;499;42.648;23.270;2023-02-28T13:16:05;10.80;45.20
1021;DHT22;499;42.648;23.270;2023-02-28T13:18:35;10.70;45.80
1021;DHT22;499;42.648;23.270;2023-02-28T13:21:06;10.60;46.00
1021;DHT22;499;42.648;23.270;2023-02-28T13:23:41;10.60;45.60
1021;DHT22;499;42.648;23.270;2023-02-28T13:26:31;10.80;46.70
1021;DHT22;499;42.648;23.270;2023-02-28T13:29:28;10.70;45.80
1021;DHT22;499;42.648;23.270;2023-02-28T13:32:29;10.70;45.80
1021;DHT22;499;42.648;23.270;2023-02-28T13:38:36;10.40;46.60
1021;DHT22;499;42.648;23.270;2023-02-28T13:44:09;10.50;46.60
1021;DHT22;499;42.648;23.270;2023-02-28T13:50:23;10.50;45.60
1021;DHT22;499;42.648;23.270;2023-02-28T13:55:45;10.50;47.80
1021;DHT22;499;42.648;23.270;2023-02-28T13:58:36;10.50;45.60
1021;DHT22;499;42.648;23.270;2023-02-28T14:01:28;10.40;47.70
1021;DHT22;499;42.648;23.270;2023-02-28T14:04:22;10.40;49.20
1021;DHT22;499;42.648;23.270;2023-02-28T14:06:55;10.40;49.80
1021;DHT22;499;42.648;23.270;2023-02-28T14:09:25;10.30;48.40
1021;DHT22;499;42.648;23.270;2023-02-28T14:11:53;10.40;50.70
1021;DHT22;499;42.648;23.270;2023-02-28T14:17:24;10.50;47.90
1021;DHT22;499;42.648;23.270;2023-02-28T14:19:54;10.50;47.40
1021;DHT22;499;42.648;23.270;2023-02-28T14:22:44;10.50;47.30
1021;DHT22;499;42.648;23.270;2023-02-28T14:25:18;10.50;48.00
1021;DHT22;499;42.648;23.270;2023-02-28T14:27:58;10.30;47.60
1021;DHT22;499;42.648;23.270;2023-02-28T14:30:57;10.30;49.10
1021;DHT22;499;42.648;23.270;2023-02-28T14:36:18;10.10;47.90
1021;DHT22;499;42.648;23.270;2023-02-28T14:38:50;10.10;48.70
1021;DHT22;499;42.648;23.270;2023-02-28T14:41:23;10.10;49.10
1021;DHT22;499;42.648;23.270;2023-02-28T14:43:54;10.20;47.20
1021;DHT22;499;42.648;23.270;2023-02-28T14:46:23;10.20;46.90
1021;DHT22;499;42.648;23.270;2023-02-28T14:48:51;10.20;45.30
1021;DHT22;499;42.648;23.270;2023-02-28T14:51:20;10.10;44.20
1021;DHT22;499;42.648;23.270;2023-02-28T14:53:50;10.20;43.80
1021;DHT22;499;42.648;23.270;2023-02-28T14:56:22;10.20;42.80
1021;DHT22;499;42.648;23.270;2023-02-28T14:58:54;10.20;42.90
1021;DHT22;499;42.648;23.270;2023-02-28T15:01:23;10.20;43.10
1021;DHT22;499;42.648;23.270;2023-02-28T15:03:58;10.20;45.30
1021;DHT22;499;42.648;23.270;2023-02-28T15:06:27;10.20;48.00
1021;DHT22;499;42.648;23.270;2023-02-28T15:09:09;10.00;49.60
1021;DHT22;499;42.648;23.270;2023-02-28T15:11:37;10.00;44.50
1021;DHT22;499;42.648;23.270;2023-02-28T15:14:05;10.00;43.70
1021;DHT22;499;42.648;23.270;2023-02-28T15:16:36;10.00;42.50
1021;DHT22;499;42.648;23.270;2023-02-28T15:19:06;10.10;43.10
1021;DHT22;499;42.648;23.270;2023-02-28T15:21:38;10.10;47.90
1021;DHT22;499;42.648;23.270;2023-02-28T15:24:10;10.00;50.70
1021;DHT22;499;42.648;23.270;2023-02-28T15:26:43;9.70;55.10
1021;DHT22;499;42.648;23.270;2023-02-28T15:29:15;9.30;61.80
1021;DHT22;499;42.648;23.270;2023-02-28T15:31:45;9.10;65.10
1021;DHT22;499;42.648;23.270;2023-02-28T15:34:18;9.00;68.40
1021;DHT22;499;42.648;23.270;2023-02-28T15:36:47;9.00;69.60
1021;DHT22;499;42.648;23.270;2023-02-28T15:39:20;9.00;71.50
1021;DHT22;499;42.648;23.270;2023-02-28T15:41:47;9.00;69.40
1021;DHT22;499;42.648;23.270;2023-02-28T15:44:17;8.90;69.60
1021;DHT22;499;42.648;23.270;2023-02-28T15:46:54;8.80;73.00
1021;DHT22;499;42.648;23.270;2023-02-28T15:49:23;8.70;75.20
1021;DHT22;499;42.648;23.270;2023-02-28T15:51:53;8.60;79.10
1021;DHT22;499;42.648;23.270;2023-02-28T15:54:24;8.50;82.10
1021;DHT22;499;42.648;23.270;2023-02-28T15:56:54;8.40;85.90
1021;DHT22;499;42.648;23.270;2023-02-28T15:59:24;8.40;87.30
1021;DHT22;499;42.648;23.270;2023-02-28T16:02:16;8.40;87.80
1021;DHT22;499;42.648;23.270;2023-02-28T16:04:58;8.30;90.20
1021;DHT22;499;42.648;23.270;2023-02-28T16:07:27;8.10;91.10
1021;DHT22;499;42.648;23.270;2023-02-28T16:09:55;8.10;91.70
1021;DHT22;499;42.648;23.270;2023-02-28T16:12:26;8.20;92.50
1021;DHT22;499;42.648;23.270;2023-02-28T16:14:55;8.20;92.40
1021;DHT22;499;42.648;23.270;2023-02-28T16:17:25;8.20;92.10
1021;DHT22;499;42.648;23.270;2023-02-28T16:19:53;8.20;92.00
1021;DHT22;499;42.648;23.270;2023-02-28T16:22:20;8.20;91.70
1021;DHT22;499;42.648;23.270;2023-02-28T16:24:48;8.20;90.90
1021;DHT22;499;42.648;23.270;2023-02-28T16:27:18;8.00;91.20
1021;DHT22;499;42.648;23.270;2023-02-28T16:29:47;8.00;91.80
1021;DHT22;499;42.648;23.270;2023-02-28T16:32:15;7.90;92.10
1021;DHT22;499;42.648;23.270;2023-02-28T16:34:43;7.90;92.70
1021;DHT22;499;42.648;23.270;2023-02-28T16:37:15;7.90;92.90
1021;DHT22;499;42.648;23.270;2023-02-28T16:39:43;8.00;92.40
1021;DHT22;499;42.648;23.270;2023-02-28T16:42:16;7.90;92.80
1021;DHT22;499;42.648;23.270;2023-02-28T16:44:47;7.90;93.50
1021;DHT22;499;42.648;23.270;2023-02-28T16:47:14;7.80;93.30
1021;DHT22;499;42.648;23.270;2023-02-28T16:49:41;7.70;93.40
1021;DHT22;499;42.648;23.270;2023-02-28T16:52:08;7.70;94.60
1021;DHT22;499;42.648;23.270;2023-02-28T16:54:36;7.60;95.10
1021;DHT22;499;42.648;23.270;2023-02-28T16:57:03;7.60;95.00
1021;DHT22;499;42.648;23.270;2023-02-28T16:59:32;7.60;96.10
1021;DHT22;499;42.648;23.270;2023-02-28T17:01:59;7.50;96.10
1021;DHT22;499;42.648;23.270;2023-02-28T17:04:27;7.50;97.20